createdAt,value
2023-05-08T00:01:23.791Z,95367.84
2023-05-08T00:03:52.976Z,95358.34
2023-05-08T00:06:20.585Z,95359.28
2023-05-08T00:08:48.008Z,95362.75
2023-05-08T00:11:15.697Z,95355.88
2023-05-08T00:13:43.153Z,95362.75
2023-05-08T00:16:12.666Z,95366.19
2023-05-08T00:18:40.383Z,95368.97
2023-05-08T00:21:08.358Z,95365.53
2023-05-08T00:23:35.779Z,95371.59
2023-05-08T00:26:03.223Z,95379.44
2023-05-08T00:28:33.849Z,95377.78
2023-05-08T00:31:01.967Z,95381.22
2023-05-08T00:33:30.918Z,95378.59
2023-05-08T00:36:01.733Z,95372.53
2023-05-08T00:38:31.058Z,95375.16
2023-05-08T00:40:58.684Z,95376.81
2023-05-08T00:43:28.177Z,95377.78
2023-05-08T00:45:56.151Z,95375.16
2023-05-08T00:48:24.188Z,95375.16
2023-05-08T00:50:53.684Z,95376.94
2023-05-08T00:53:22.890Z,95375.16
2023-05-08T00:55:51.685Z,95367.31
2023-05-08T00:58:19.693Z,95371.72
2023-05-08T01:00:47.650Z,95372.53
2023-05-08T01:03:15.250Z,95369.09
2023-05-08T01:05:42.923Z,95373.38
2023-05-08T01:08:11.772Z,95376.81
2023-05-08T01:10:43.815Z,95378.59
2023-05-08T01:13:16.078Z,95378.59
2023-05-08T01:15:46.208Z,95382.06
2023-05-08T01:18:16.755Z,95379.44
2023-05-08T01:20:47.524Z,95379.44
2023-05-08T01:23:36.472Z,95378.44
2023-05-08T01:26:32.393Z,95389.75
2023-05-08T01:29:07.580Z,95390.69
2023-05-08T01:31:44.149Z,95394.97
2023-05-08T01:34:16.148Z,95389.91
2023-05-08T01:36:48.519Z,95400.38
2023-05-08T01:39:18.757Z,95402.00
2023-05-08T01:41:49.911Z,95393.31
2023-05-08T01:44:19.266Z,95403.78
2023-05-08T01:46:51.786Z,95396.94
2023-05-08T01:49:23.185Z,95400.38
2023-05-08T01:51:58.274Z,95402.16
2023-05-08T01:54:28.024Z,95410.00
2023-05-08T01:56:57.334Z,95409.19
2023-05-08T01:59:25.577Z,95410.00
2023-05-08T02:01:55.166Z,95410.00
2023-05-08T02:04:24.896Z,95402.31
2023-05-08T02:06:53.189Z,95406.56
2023-05-08T02:09:22.607Z,95411.81
2023-05-08T02:11:51.347Z,95412.78
2023-05-08T02:14:20.827Z,95411.97
2023-05-08T02:16:49.635Z,95407.41
2023-05-08T02:19:17.740Z,95410.19
2023-05-08T02:21:46.912Z,95410.19
2023-05-08T02:24:15.638Z,95419.81
2023-05-08T02:26:44.105Z,95414.41
2023-05-08T02:29:11.909Z,95412.78
2023-05-08T02:31:39.850Z,95414.56
2023-05-08T02:34:09.065Z,95413.59
2023-05-08T02:36:37.332Z,95411.81
2023-05-08T02:39:06.953Z,95409.19
2023-05-08T02:41:34.854Z,95414.41
2023-05-08T02:44:02.364Z,95418.69
2023-05-08T02:46:37.030Z,95421.31
2023-05-08T02:49:06.799Z,95417.88
2023-05-08T02:51:38.915Z,95417.88
2023-05-08T02:54:10.256Z,95422.09
2023-05-08T02:56:39.182Z,95419.50
2023-05-08T02:59:13.384Z,95417.69
2023-05-08T03:01:45.251Z,95416.88
2023-05-08T03:04:14.155Z,95422.94
2023-05-08T03:06:43.819Z,95416.06
2023-05-08T03:09:16.677Z,95424.72
2023-05-08T03:11:45.937Z,95411.81
2023-05-08T03:14:15.450Z,95418.69
2023-05-08T03:16:44.022Z,95413.47
2023-05-08T03:19:16.062Z,95421.31
2023-05-08T03:21:45.134Z,95418.69
2023-05-08T03:24:16.653Z,95424.72
2023-05-08T03:26:44.466Z,95424.88
2023-05-08T03:29:14.404Z,95424.72
2023-05-08T03:31:42.387Z,95423.09
2023-05-08T03:34:10.721Z,95426.66
2023-05-08T03:36:38.153Z,95427.50
2023-05-08T03:39:05.625Z,95420.47
2023-05-08T03:41:34.502Z,95423.94
2023-05-08T03:44:03.372Z,95429.16
2023-05-08T03:46:31.969Z,95424.88
2023-05-08T03:49:01.177Z,95428.34
2023-05-08T03:51:28.920Z,95423.09
2023-05-08T03:53:56.338Z,95424.06
2023-05-08T03:56:25.919Z,95433.56
2023-05-08T03:58:58.052Z,95434.53
2023-05-08T04:01:26.878Z,95436.19
2023-05-08T04:04:02.575Z,95432.72
2023-05-08T04:06:38.847Z,95437.13
2023-05-08T04:09:15.751Z,95444.03
2023-05-08T04:11:45.246Z,95443.03
2023-05-08T04:14:15.444Z,95440.44
2023-05-08T04:16:48.070Z,95449.09
2023-05-08T04:19:19.125Z,95443.03
2023-05-08T04:21:47.931Z,95455.16
2023-05-08T04:24:16.355Z,95456.00
2023-05-08T04:26:44.235Z,95458.63
2023-05-08T04:29:11.799Z,95461.22
2023-05-08T04:31:41.216Z,95464.69
2023-05-08T04:34:09.285Z,95462.06
2023-05-08T04:36:36.728Z,95468.09
2023-05-08T04:39:04.267Z,95464.69
2023-05-08T04:41:32.298Z,95463.69
2023-05-08T04:43:59.876Z,95472.53
2023-05-08T04:46:27.421Z,95472.53
2023-05-08T04:48:56.286Z,95469.09
2023-05-08T04:51:23.747Z,95470.88
2023-05-08T04:53:51.508Z,95474.31
2023-05-08T04:56:19.343Z,95476.94
2023-05-08T04:58:46.775Z,95485.63
2023-05-08T05:01:14.236Z,95484.78
2023-05-08T05:03:41.814Z,95483.81
2023-05-08T05:06:10.664Z,95490.03
2023-05-08T05:08:38.083Z,95496.09
2023-05-08T05:11:05.645Z,95487.41
2023-05-08T05:13:33.108Z,95488.25
2023-05-08T05:16:00.637Z,95496.88
2023-05-08T05:18:28.475Z,95494.28
2023-05-08T05:20:58.695Z,95494.28
2023-05-08T05:23:27.512Z,95501.16
2023-05-08T05:25:54.973Z,95498.56
2023-05-08T05:28:22.452Z,95500.34
2023-05-08T05:30:49.926Z,95500.19
2023-05-08T05:33:17.522Z,95499.38
2023-05-08T05:35:44.998Z,95510.66
2023-05-08T05:38:12.482Z,95508.84
2023-05-08T05:40:41.289Z,95514.09
2023-05-08T05:43:08.749Z,95509.84
2023-05-08T05:45:36.315Z,95519.31
2023-05-08T05:48:03.881Z,95514.91
2023-05-08T05:50:31.451Z,95516.72
2023-05-08T05:52:58.909Z,95516.72
2023-05-08T05:55:26.704Z,95514.91
2023-05-08T05:57:55.525Z,95521.81
2023-05-08T06:00:23.222Z,95524.44
2023-05-08T06:02:50.749Z,95534.06
2023-05-08T06:05:18.983Z,95527.06
2023-05-08T06:07:47.165Z,95524.44
2023-05-08T06:10:14.636Z,95532.28
2023-05-08T06:12:42.411Z,95527.06
2023-05-08T06:15:12.652Z,95529.66
2023-05-08T06:17:40.406Z,95530.47
2023-05-08T06:20:08.380Z,95530.47
2023-05-08T06:22:37.610Z,95527.84
2023-05-08T06:25:07.024Z,95528.00
2023-05-08T06:27:34.622Z,95529.66
2023-05-08T06:30:02.270Z,95528.00
2023-05-08T06:32:31.264Z,95532.28
2023-05-08T06:34:58.686Z,95534.06
2023-05-08T06:37:26.370Z,95540.13
2023-05-08T06:40:00.539Z,95540.13
2023-05-08T06:42:38.827Z,95535.88
2023-05-08T06:45:07.470Z,95542.75
2023-05-08T06:47:36.314Z,95541.94
2023-05-08T06:50:04.435Z,95541.94
2023-05-08T06:52:31.893Z,95541.09
2023-05-08T06:54:59.312Z,95544.66
2023-05-08T06:57:29.189Z,95535.03
2023-05-08T06:59:56.770Z,95548.13
2023-05-08T07:02:24.248Z,95548.94
2023-05-08T07:04:53.299Z,95550.75
2023-05-08T07:07:20.878Z,95551.56
2023-05-08T07:09:48.384Z,95551.56
2023-05-08T07:12:16.789Z,95556.81
2023-05-08T07:14:44.487Z,95562.88
2023-05-08T07:17:11.941Z,95548.94
2023-05-08T07:19:39.466Z,95552.41
2023-05-08T07:22:08.329Z,95555.00
2023-05-08T07:24:35.776Z,95549.78
2023-05-08T07:27:03.248Z,95556.66
2023-05-08T07:29:30.740Z,95567.13
2023-05-08T07:31:58.275Z,95561.88
2023-05-08T07:34:25.884Z,95563.69
2023-05-08T07:36:53.342Z,95565.31
2023-05-08T07:39:22.227Z,95566.31
2023-05-08T07:41:50.087Z,95568.94
2023-05-08T07:44:17.604Z,95552.25
2023-05-08T07:46:45.244Z,95565.31
2023-05-08T07:49:12.739Z,95570.56
2023-05-08T07:51:40.347Z,95567.13
2023-05-08T07:54:07.850Z,95573.19
2023-05-08T07:56:36.658Z,95574.00
2023-05-08T07:59:04.179Z,95565.31
2023-05-08T08:01:31.694Z,95567.13
2023-05-08T08:03:59.282Z,95567.94
2023-05-08T08:06:26.888Z,95567.94
2023-05-08T08:08:54.341Z,95565.31
2023-05-08T08:11:21.805Z,95571.41
2023-05-08T08:13:50.636Z,95564.50
2023-05-08T08:16:18.103Z,95568.94
2023-05-08T08:18:45.659Z,95571.56
2023-05-08T08:21:13.107Z,95572.34
2023-05-08T08:23:40.580Z,95574.16
2023-05-08T08:26:08.093Z,95571.56
2023-05-08T08:28:35.548Z,95572.50
2023-05-08T08:31:04.421Z,95567.28
2023-05-08T08:33:31.969Z,95568.94
2023-05-08T08:35:59.485Z,95573.34
2023-05-08T08:38:27.231Z,95575.97
2023-05-08T08:40:54.727Z,95575.97
2023-05-08T08:43:22.250Z,95578.56
2023-05-08T08:45:49.683Z,95574.16
2023-05-08T08:48:20.413Z,95566.31
2023-05-08T08:50:50.089Z,95568.09
2023-05-08T08:53:22.642Z,95568.09
2023-05-08T08:55:52.533Z,95563.69
2023-05-08T08:58:22.974Z,95556.81
2023-05-08T09:00:50.819Z,95560.25
2023-05-08T09:03:19.724Z,95563.69
2023-05-08T09:05:49.236Z,95570.56
2023-05-08T09:08:16.835Z,95570.56
2023-05-08T09:10:44.318Z,95567.94
2023-05-08T09:13:11.914Z,95560.09
2023-05-08T09:15:39.448Z,95564.50
2023-05-08T09:18:07.014Z,95567.78
2023-05-08T09:20:36.363Z,95566.16
2023-05-08T09:23:04.002Z,95565.16
2023-05-08T09:25:42.159Z,95567.00
2023-05-08T09:28:19.015Z,95552.25
2023-05-08T09:30:50.049Z,95560.09
2023-05-08T09:33:17.847Z,95567.78
2023-05-08T09:35:48.403Z,95566.16
2023-05-08T09:38:35.223Z,95563.53
2023-05-08T09:41:09.835Z,95570.56
2023-05-08T09:43:37.318Z,95568.78
2023-05-08T09:46:21.128Z,95567.94
2023-05-08T09:48:49.135Z,95564.50
2023-05-08T09:51:18.019Z,95561.09
2023-05-08T09:53:45.538Z,95566.31
2023-05-08T09:56:13.419Z,95562.88
2023-05-08T09:58:41.547Z,95574.16
2023-05-08T10:01:09.595Z,95564.50
2023-05-08T10:03:49.719Z,95571.56
2023-05-08T10:06:18.688Z,95568.94
2023-05-08T10:08:47.009Z,95565.63
2023-05-08T10:11:15.274Z,95559.41
2023-05-08T10:13:42.703Z,95572.34
2023-05-08T10:16:12.626Z,95568.09
2023-05-08T10:18:40.889Z,95560.38
2023-05-08T10:21:09.239Z,95572.50
2023-05-08T10:23:38.848Z,95569.88
2023-05-08T10:26:08.829Z,95569.06
2023-05-08T10:28:41.538Z,95564.66
2023-05-08T10:31:09.339Z,95564.50
2023-05-08T10:33:40.008Z,95567.13
2023-05-08T10:36:09.635Z,95567.94
2023-05-08T10:38:38.872Z,95555.84
2023-05-08T10:41:06.513Z,95562.72
2023-05-08T10:43:34.567Z,95548.00
2023-05-08T10:46:08.739Z,95550.44
2023-05-08T10:48:40.484Z,95550.44
2023-05-08T10:51:11.447Z,95549.63
2023-05-08T10:53:43.397Z,95550.44
2023-05-08T10:56:11.439Z,95545.22
2023-05-08T10:58:40.230Z,95543.44
2023-05-08T11:01:15.049Z,95539.97
2023-05-08T11:03:44.409Z,95543.44
2023-05-08T11:06:12.288Z,95547.84
2023-05-08T11:08:47.634Z,95549.47
2023-05-08T11:11:18.390Z,95551.28
2023-05-08T11:13:48.693Z,95544.38
2023-05-08T11:16:16.389Z,95542.59
2023-05-08T11:18:58.786Z,95544.38
2023-05-08T11:21:26.434Z,95548.78
2023-05-08T11:23:58.658Z,95545.22
2023-05-08T11:26:39.458Z,95540.94
2023-05-08T11:29:16.785Z,95540.94
2023-05-08T11:31:51.108Z,95535.72
2023-05-08T11:34:45.918Z,95540.94
2023-05-08T11:37:17.508Z,95529.66
2023-05-08T11:39:46.401Z,95540.94
2023-05-08T11:42:32.417Z,95538.31
2023-05-08T11:45:04.354Z,95540.94
2023-05-08T11:47:33.149Z,95537.38
2023-05-08T11:50:00.654Z,95540.13
2023-05-08T11:52:28.177Z,95540.94
2023-05-08T11:54:56.992Z,95540.94
2023-05-08T11:57:24.466Z,95539.31
2023-05-08T11:59:52.227Z,95536.69
2023-05-08T12:02:19.951Z,95543.56
2023-05-08T12:04:48.021Z,95548.78
2023-05-08T12:07:16.457Z,95542.75
2023-05-08T12:09:43.925Z,95545.22
2023-05-08T12:12:12.715Z,95549.47
2023-05-08T12:14:40.221Z,95545.22
2023-05-08T12:17:07.808Z,95545.22
2023-05-08T12:19:35.432Z,95550.28
2023-05-08T12:22:02.983Z,95551.28
2023-05-08T12:24:31.513Z,95552.09
2023-05-08T12:26:58.980Z,95552.09
2023-05-08T12:29:27.802Z,95542.44
2023-05-08T12:31:55.415Z,95534.59
2023-05-08T12:34:23.272Z,95545.06
2023-05-08T12:37:02.078Z,95549.34
2023-05-08T12:39:29.556Z,95547.53
2023-05-08T12:41:58.513Z,95544.91
2023-05-08T12:44:28.356Z,95547.38
2023-05-08T12:46:57.270Z,95547.38
2023-05-08T12:49:26.246Z,95550.00
2023-05-08T12:52:01.024Z,95542.97
2023-05-08T12:54:32.874Z,95545.59
2023-05-08T12:57:00.765Z,95542.97
2023-05-08T12:59:33.853Z,95542.16
2023-05-08T13:02:01.389Z,95536.09
2023-05-08T13:04:28.986Z,95541.16
2023-05-08T13:06:56.858Z,95541.16
2023-05-08T13:09:24.503Z,95540.22
2023-05-08T13:11:52.022Z,95543.78
2023-05-08T13:14:19.465Z,95541.16
2023-05-08T13:16:48.761Z,95542.00
2023-05-08T13:19:16.601Z,95539.38
2023-05-08T13:21:47.177Z,95528.06
2023-05-08T13:24:14.640Z,95535.94
2023-05-08T13:26:42.097Z,95533.31
2023-05-08T13:29:09.870Z,95530.69
2023-05-08T13:31:37.325Z,95529.91
2023-05-08T13:34:06.098Z,95537.75
2023-05-08T13:36:33.559Z,95536.75
2023-05-08T13:39:01.026Z,95528.06
2023-05-08T13:41:28.476Z,95532.34
2023-05-08T13:43:55.884Z,95521.06
2023-05-08T13:46:24.585Z,95524.50
2023-05-08T13:48:52.120Z,95521.88
2023-05-08T13:51:21.264Z,95524.34
2023-05-08T13:53:48.728Z,95515.81
2023-05-08T13:56:16.159Z,95522.72
2023-05-08T13:58:43.614Z,95523.50
2023-05-08T14:01:25.973Z,95524.50
2023-05-08T14:03:54.698Z,95522.72
2023-05-08T14:06:24.061Z,95526.97
2023-05-08T14:08:54.590Z,95526.13
2023-05-08T14:11:40.074Z,95530.56
2023-05-08T14:14:07.655Z,95529.72
2023-05-08T14:16:35.315Z,95527.13
2023-05-08T14:19:02.856Z,95529.72
2023-05-08T14:21:31.972Z,95531.38
2023-05-08T14:23:59.417Z,95528.91
2023-05-08T14:26:27.355Z,95526.72
2023-05-08T14:28:54.874Z,95525.09
2023-05-08T14:31:22.370Z,95533.09
2023-05-08T14:33:49.853Z,95523.59
2023-05-08T14:36:17.332Z,95527.19
2023-05-08T14:38:46.813Z,95526.50
2023-05-08T14:41:15.541Z,95513.59
2023-05-08T14:43:43.918Z,95521.44
2023-05-08T14:46:11.409Z,95523.22
2023-05-08T14:48:38.869Z,95513.03
2023-05-08T14:51:06.538Z,95516.66
2023-05-08T14:53:34.177Z,95512.38
2023-05-08T14:56:03.865Z,95518.28
2023-05-08T14:58:31.577Z,95519.09
2023-05-08T15:00:59.013Z,95523.66
2023-05-08T15:03:26.878Z,95523.50
2023-05-08T15:05:54.438Z,95530.25
2023-05-08T15:08:21.949Z,95527.34
2023-05-08T15:10:49.459Z,95526.34
2023-05-08T15:13:18.444Z,95529.66
2023-05-08T15:15:45.911Z,95530.63
2023-05-08T15:18:13.356Z,95530.91
2023-05-08T15:20:40.844Z,95526.66
2023-05-08T15:23:08.309Z,95525.69
2023-05-08T15:25:36.093Z,95524.88
2023-05-08T15:28:03.625Z,95532.41
2023-05-08T15:30:32.401Z,95529.81
2023-05-08T15:32:59.969Z,95529.81
2023-05-08T15:35:27.424Z,95536.69
2023-05-08T15:37:54.855Z,95531.47
2023-05-08T15:40:22.330Z,95535.19
2023-05-08T15:42:49.862Z,95526.50
2023-05-08T15:45:17.359Z,95528.47
2023-05-08T15:47:46.171Z,95520.59
2023-05-08T15:50:14.564Z,95530.13
2023-05-08T15:52:42.226Z,95520.59
2023-05-08T15:55:09.973Z,95526.78
2023-05-08T15:57:37.401Z,95522.41
2023-05-08T16:00:05.254Z,95524.06
2023-05-08T16:02:32.762Z,95518.81
2023-05-08T16:05:01.662Z,95520.44
2023-05-08T16:07:29.140Z,95523.22
2023-05-08T16:09:56.536Z,95526.50
2023-05-08T16:12:23.957Z,95517.69
2023-05-08T16:14:51.438Z,95521.94
2023-05-08T16:17:18.904Z,95513.41
2023-05-08T16:19:46.333Z,95519.66
2023-05-08T16:22:15.246Z,95514.41
2023-05-08T16:24:42.749Z,95514.41
2023-05-08T16:27:10.172Z,95516.03
2023-05-08T16:29:37.997Z,95515.09
2023-05-08T16:32:05.601Z,95515.22
2023-05-08T16:34:35.170Z,95517.69
2023-05-08T16:37:02.782Z,95515.88
2023-05-08T16:39:31.615Z,95516.72
2023-05-08T16:41:59.052Z,95517.69
2023-05-08T16:44:26.514Z,95518.50
2023-05-08T16:46:54.140Z,95513.25
2023-05-08T16:49:21.619Z,95517.53
2023-05-08T16:51:49.079Z,95517.53
2023-05-08T16:54:16.524Z,95516.88
2023-05-08T16:56:45.335Z,95521.94
2023-05-08T16:59:12.819Z,95517.69
2023-05-08T17:01:40.302Z,95521.13
2023-05-08T17:04:07.778Z,95521.13
2023-05-08T17:06:35.215Z,95526.22
2023-05-08T17:09:02.643Z,95530.91
2023-05-08T17:11:30.107Z,95534.38
2023-05-08T17:13:58.877Z,95536.16
2023-05-08T17:16:26.701Z,95535.19
2023-05-08T17:18:54.254Z,95543.03
2023-05-08T17:21:21.719Z,95534.38
2023-05-08T17:23:49.178Z,95542.22
2023-05-08T17:26:16.649Z,95544.84
2023-05-08T17:28:44.065Z,95539.59
2023-05-08T17:31:14.546Z,95550.22
2023-05-08T17:33:41.998Z,95551.19
2023-05-08T17:36:09.772Z,95544.16
2023-05-08T17:38:43.131Z,95559.03
2023-05-08T17:41:10.650Z,95559.03
2023-05-08T17:43:38.089Z,95551.19
2023-05-08T17:46:05.633Z,95559.03
2023-05-08T17:48:35.147Z,95552.00
2023-05-08T17:51:03.356Z,95565.09
2023-05-08T17:53:30.975Z,95570.34
2023-05-08T17:55:58.695Z,95571.16
2023-05-08T17:58:26.190Z,95568.53
2023-05-08T18:00:54.548Z,95571.28
2023-05-08T18:03:22.088Z,95575.56
2023-05-08T18:05:51.053Z,95577.34
2023-05-08T18:08:18.555Z,95579.97
2023-05-08T18:10:46.001Z,95572.13
2023-05-08T18:13:13.491Z,95579.13
2023-05-08T18:15:41.191Z,95585.22
2023-05-08T18:18:08.899Z,95572.13
2023-05-08T18:20:36.375Z,95573.09
2023-05-08T18:23:05.177Z,95574.91
2023-05-08T18:25:32.608Z,95583.56
2023-05-08T18:28:00.480Z,95580.97
2023-05-08T18:30:27.977Z,95588.81
2023-05-08T18:32:55.499Z,95592.22
2023-05-08T18:35:22.944Z,95584.53
2023-05-08T18:37:50.487Z,95582.91
2023-05-08T18:40:19.453Z,95580.97
2023-05-08T18:42:46.917Z,95593.38
2023-05-08T18:45:14.430Z,95589.75
2023-05-08T18:47:41.927Z,95587.97
2023-05-08T18:50:10.322Z,95584.69
2023-05-08T18:52:37.785Z,95588.94
2023-05-08T18:55:05.477Z,95582.06
2023-05-08T18:57:34.258Z,95581.25
2023-05-08T19:00:01.717Z,95592.53
2023-05-08T19:02:29.205Z,95589.09
2023-05-08T19:04:56.701Z,95591.72
2023-05-08T19:07:24.171Z,95585.66
2023-05-08T19:09:51.598Z,95589.09
2023-05-08T19:12:19.177Z,95585.66
2023-05-08T19:14:49.040Z,95584.00
2023-05-08T19:17:16.504Z,95597.94
2023-05-08T19:19:44.562Z,95584.97
2023-05-08T19:22:12.080Z,95591.03
2023-05-08T19:24:39.812Z,95596.44
2023-05-08T19:27:07.613Z,95596.44
2023-05-08T19:29:35.546Z,95595.44
2023-05-08T19:32:04.793Z,95595.59
2023-05-08T19:34:33.057Z,95598.22
2023-05-08T19:37:00.637Z,95593.81
2023-05-08T19:39:28.101Z,95598.06
2023-05-08T19:41:55.574Z,95589.53
2023-05-08T19:44:23.024Z,95601.78
2023-05-08T19:46:51.655Z,95592.97
2023-05-08T19:49:20.479Z,95592.16
2023-05-08T19:51:48.588Z,95601.66
2023-05-08T19:54:16.167Z,95598.22
2023-05-08T19:56:43.601Z,95592.16
2023-05-08T19:59:11.277Z,95600.84
2023-05-08T20:01:38.807Z,95592.97
2023-05-08T20:04:06.521Z,95595.59
2023-05-08T20:06:35.635Z,95600.84
2023-05-08T20:09:03.085Z,95605.06
2023-05-08T20:11:31.166Z,95606.06
2023-05-08T20:13:58.619Z,95608.69
2023-05-08T20:16:26.102Z,95604.41
2023-05-08T20:18:54.314Z,95608.69
2023-05-08T20:21:21.819Z,95600.84
2023-05-08T20:23:50.591Z,95601.00
2023-05-08T20:26:18.049Z,95601.00
2023-05-08T20:28:45.543Z,95601.78
2023-05-08T20:31:12.998Z,95605.38
2023-05-08T20:33:40.418Z,95605.38
2023-05-08T20:36:07.903Z,95600.16
2023-05-08T20:38:36.463Z,95596.56
2023-05-08T20:41:05.871Z,95595.75
2023-05-08T20:43:33.324Z,95595.88
2023-05-08T20:46:00.798Z,95594.91
2023-05-08T20:48:28.313Z,95594.91
2023-05-08T20:50:55.929Z,95589.84
2023-05-08T20:53:23.373Z,95584.63
2023-05-08T20:55:50.975Z,95577.56
2023-05-08T20:58:19.817Z,95584.63
2023-05-08T21:00:47.261Z,95579.38
2023-05-08T21:03:14.746Z,95582.78
2023-05-08T21:05:42.155Z,95575.94
2023-05-08T21:08:09.580Z,95572.31
2023-05-08T21:10:37.029Z,95578.53
2023-05-08T21:13:05.366Z,95579.38
2023-05-08T21:15:34.931Z,95570.69
2023-05-08T21:18:02.445Z,95574.16
2023-05-08T21:20:29.909Z,95574.16
2023-05-08T21:22:57.393Z,95573.31
2023-05-08T21:25:24.828Z,95580.19
2023-05-08T21:27:54.048Z,95570.53
2023-05-08T21:30:22.783Z,95574.94
2023-05-08T21:32:51.579Z,95564.63
2023-05-08T21:35:19.122Z,95563.69
2023-05-08T21:37:46.580Z,95561.06
2023-05-08T21:40:14.040Z,95559.25
2023-05-08T21:42:41.589Z,95555.00
2023-05-08T21:45:09.467Z,95553.22
2023-05-08T21:47:36.897Z,95552.38
2023-05-08T21:50:06.129Z,95549.88
2023-05-08T21:52:33.968Z,95553.50
2023-05-08T21:55:01.383Z,95549.09
2023-05-08T21:57:28.801Z,95549.09
2023-05-08T21:59:56.248Z,95544.81
2023-05-08T22:02:23.707Z,95545.66
2023-05-08T22:04:51.195Z,95549.09
2023-05-08T22:07:21.082Z,95542.19
2023-05-08T22:09:48.531Z,95542.03
2023-05-08T22:12:15.963Z,95539.28
2023-05-08T22:14:43.646Z,95538.31
2023-05-08T22:17:11.121Z,95538.03
2023-05-08T22:19:38.589Z,95531.69
2023-05-08T22:22:06.086Z,95530.84
2023-05-08T22:24:34.920Z,95527.13
2023-05-08T22:27:02.360Z,95529.72
2023-05-08T22:29:29.796Z,95526.94
2023-05-08T22:31:57.258Z,95529.56
2023-05-08T22:34:24.700Z,95526.94
2023-05-08T22:36:52.140Z,95526.78
2023-05-08T22:39:19.617Z,95527.63
2023-05-08T22:41:48.439Z,95529.41
2023-05-08T22:44:15.931Z,95529.41
2023-05-08T22:46:43.582Z,95526.00
2023-05-08T22:49:11.196Z,95533.69
2023-05-08T22:51:39.015Z,95534.53
2023-05-08T22:54:06.538Z,95531.91
2023-05-08T22:56:34.030Z,95522.25
2023-05-08T22:59:02.787Z,95533.53
2023-05-08T23:01:30.285Z,95524.88
2023-05-08T23:03:57.793Z,95525.69
2023-05-08T23:06:25.291Z,95530.78
2023-05-08T23:08:52.730Z,95529.97
2023-05-08T23:11:21.275Z,95525.56
2023-05-08T23:13:48.742Z,95518.50
2023-05-08T23:16:17.634Z,95519.31
2023-05-08T23:18:45.114Z,95517.53
2023-05-08T23:21:12.553Z,95514.09
2023-05-08T23:23:40.021Z,95516.72
2023-05-08T23:26:07.474Z,95518.38
2023-05-08T23:28:35.659Z,95521.00
2023-05-08T23:31:03.477Z,95518.38
2023-05-08T23:33:32.468Z,95512.16
2023-05-08T23:35:59.988Z,95507.06
2023-05-08T23:38:27.519Z,95498.25
2023-05-08T23:40:54.950Z,95493.03
2023-05-08T23:43:22.436Z,95491.22
2023-05-08T23:45:50.486Z,95490.41
2023-05-08T23:48:18.261Z,95488.75
2023-05-08T23:50:48.110Z,95486.13
2023-05-08T23:53:16.142Z,95480.91
2023-05-08T23:55:43.615Z,95480.91
2023-05-08T23:58:11.069Z,95481.72
